OIZJ  Jask  Airport

Jask, Iran

Add Bookmark
ICAO OIZJ
Type Airport
Status Operational
Latitude
25° 39' 12" N
25.653601
Longitude
57° 47' 57" E
57.799301
Local (GMT +4.5 ) UTC
May 1, 2016 06:10 pm May 1, 2016 13:40
Sunrise-Sunset Local UTC
Begin Civil Twilight 05:36 am 01:06
Sunrise 06:00 am 01:30
Sunset 07:11 pm 14:41
End Civil Twilight 07:35 pm 15:05
VFR
VFR
MVFR
MVFR
IFR
IFR
LIFR
LIFR
Unknown
Unavailable

Current Weather

METAR Observed MVFR
OIZJ 011300Z 27012KT 5000 HZ NSC 31/22 Q1003 Sun, May 1, 2016 @ 13:00 UTC
(40 Minutes ago)
Marginal Visual Flight Rules
Wind Visibility Conditions
270° at 12 knots (22 kph) 5,005 m
  • Haze
Temperatures Readings Precipitation
Current Temp
31°C
88°F
Dewpoint
22°C
72°F
Heat Index
35°C
95°
Humidity 59%
Altimeter 29.62" Hg
Sea Level Pressure 1,003 mb
Field Elevation
4 m
13 ft
None Recorded
-
-

CheckWX.com is intended as a tool to help pilots better visualize weather data. It is not intended as a substitute for an official weather briefing obtained from a Flight Service Station. CheckWX.com does not meet the FAA requirements for an official pre-flight weather briefing. Therefore, it's important that pilots still call and obtain an official FSS pre-flight weather briefing.

© 2007-2016 CheckWX.com
13:40:41 UTC